Terminal Aerodrome Forecast
Issued by NWS

Current Version | Previous Version | Text Only | Print | Product List | Glossary On
Versions: 1 2 3 4 5 6 7 8 9 10 11 12 13 14 15 16 17 18 19 20 21 22 23 24 25 26 27 28 29 30
000 FTUS41 KILN 221752 TAFLCK TAF KLCK 221752Z 2218/2318 22013G21KT P6SM FEW060 FM222300 20010KT P6SM BKN250 FM230700 19009KT P6SM VCSH BKN070 FM230900 20009KT P6SM -SHRA SCT025 OVC045 FM231200 22011KT P6SM BKN018 OVC025 FM231500 25011G20KT P6SM OVC018=

USA.gov is the U.S. government's official web portal to all federal, state and local government web resources and services.